createdAt,value
2022-11-18T00:02:47.074Z,97535.22
2022-11-18T00:06:07.126Z,97537.02
2022-11-18T00:09:23.513Z,97531.95
2022-11-18T00:12:53.930Z,97535.37
2022-11-18T00:16:14.150Z,97532.76
2022-11-18T00:19:33.398Z,97528.51
2022-11-18T00:22:49.385Z,97524.94
2022-11-18T00:26:10.167Z,97520.68
2022-11-18T00:29:27.602Z,97523.97
2022-11-18T00:32:43.711Z,97529.56
2022-11-18T00:36:05.318Z,97525.99
2022-11-18T00:39:24.870Z,97526.95
2022-11-18T00:42:59.415Z,97527.92
2022-11-18T00:46:18.095Z,97517.64
2022-11-18T00:49:34.538Z,97519.13
2022-11-18T00:52:50.967Z,97523.66
2022-11-18T00:56:07.799Z,97518.75
2022-11-18T00:59:23.938Z,97522.17
2022-11-18T01:02:40.086Z,97523.16
2022-11-18T01:05:56.521Z,97519.44
2022-11-18T01:09:12.963Z,97517.64
2022-11-18T01:12:43.493Z,97509.28
2022-11-18T01:16:03.563Z,97506.09
2022-11-18T01:19:20.001Z,97517.64
2022-11-18T01:22:36.807Z,97509.81
2022-11-18T01:25:55.384Z,97513.91
2022-11-18T01:29:11.660Z,97505.93
2022-11-18T01:32:27.749Z,97508.27
2022-11-18T01:35:47.952Z,97510.19
2022-11-18T01:39:04.649Z,97505.71
2022-11-18T01:42:25.176Z,97513.70
2022-11-18T01:45:46.137Z,97505.88
2022-11-18T01:49:06.513Z,97507.64
2022-11-18T01:52:23.375Z,97500.80
2022-11-18T01:55:43.716Z,97499.81
2022-11-18T01:59:04.073Z,97498.85
2022-11-18T02:02:23.343Z,97499.81
2022-11-18T02:05:41.435Z,97494.47
2022-11-18T02:08:58.910Z,97497.08
2022-11-18T02:12:16.673Z,97481.43
2022-11-18T02:15:43.398Z,97480.75
2022-11-18T02:19:04.382Z,97477.02
2022-11-18T02:22:31.473Z,97474.94
2022-11-18T02:25:53.785Z,97474.10
2022-11-18T02:29:15.379Z,97465.78
2022-11-18T02:32:36.123Z,97465.00
2022-11-18T02:35:56.962Z,97457.87
2022-11-18T02:39:18.850Z,97451.75
2022-11-18T02:42:38.765Z,97453.83
2022-11-18T02:45:59.892Z,97447.81
2022-11-18T02:49:20.026Z,97453.61
2022-11-18T02:52:39.239Z,97461.13
2022-11-18T02:55:57.498Z,97465.97
2022-11-18T02:59:14.444Z,97473.48
2022-11-18T03:02:31.308Z,97460.44
2022-11-18T03:05:52.730Z,97467.89
2022-11-18T03:09:17.181Z,97458.30
2022-11-18T03:12:40.829Z,97463.52
2022-11-18T03:16:01.125Z,97459.41
2022-11-18T03:19:23.347Z,97456.66
2022-11-18T03:22:45.194Z,97445.42
2022-11-18T03:26:07.065Z,97443.09
2022-11-18T03:29:29.315Z,97441.44
2022-11-18T03:32:49.639Z,97445.55
2022-11-18T03:36:09.945Z,97442.94
2022-11-18T03:39:28.314Z,97448.15
2022-11-18T03:42:49.530Z,97442.50
2022-11-18T03:46:13.085Z,97451.28
2022-11-18T03:49:33.602Z,97450.63
2022-11-18T03:52:50.866Z,97441.81
2022-11-18T03:56:17.101Z,97436.08
2022-11-18T03:59:35.010Z,97429.63
2022-11-18T04:02:52.537Z,97427.66
2022-11-18T04:06:13.359Z,97430.27
2022-11-18T04:09:33.230Z,97427.02
2022-11-18T04:12:54.049Z,97419.03
2022-11-18T04:16:12.096Z,97419.09
2022-11-18T04:19:28.468Z,97424.03
2022-11-18T04:22:44.632Z,97418.57
2022-11-18T04:26:00.924Z,97408.98
2022-11-18T04:29:17.467Z,97413.20
2022-11-18T04:32:33.849Z,97407.02
2022-11-18T04:35:51.934Z,97407.98
2022-11-18T04:39:08.088Z,97419.78
2022-11-18T04:42:24.372Z,97417.02
2022-11-18T04:45:40.842Z,97404.79
2022-11-18T04:48:56.868Z,97406.75
2022-11-18T04:52:13.774Z,97407.40
2022-11-18T04:55:29.800Z,97412.39
2022-11-18T04:58:45.877Z,97409.63
2022-11-18T05:02:03.772Z,97413.89
2022-11-18T05:05:20.037Z,97406.59
2022-11-18T05:08:36.968Z,97411.65
2022-11-18T05:12:07.655Z,97410.53
2022-11-18T05:15:24.738Z,97417.23
2022-11-18T05:18:40.859Z,97417.17
2022-11-18T05:21:57.161Z,97434.05
2022-11-18T05:25:14.897Z,97434.58
2022-11-18T05:28:30.940Z,97435.48
2022-11-18T05:31:47.210Z,97434.38
2022-11-18T05:35:03.259Z,97436.17
2022-11-18T05:38:19.251Z,97432.23
2022-11-18T05:41:49.517Z,97430.42
2022-11-18T05:45:05.838Z,97436.60
2022-11-18T05:48:21.858Z,97438.03
2022-11-18T05:51:38.166Z,97441.59
2022-11-18T05:54:57.804Z,97444.20
2022-11-18T05:58:13.906Z,97435.58
2022-11-18T06:01:34.778Z,97442.87
2022-11-18T06:04:54.933Z,97452.17
2022-11-18T06:08:13.054Z,97453.83
2022-11-18T06:11:29.802Z,97459.31
2022-11-18T06:14:50.450Z,97462.34
2022-11-18T06:18:10.688Z,97465.48
2022-11-18T06:21:27.385Z,97466.45
2022-11-18T06:24:44.582Z,97462.73
2022-11-18T06:28:05.344Z,97462.08
2022-11-18T06:31:22.039Z,97466.33
2022-11-18T06:34:41.701Z,97468.94
2022-11-18T06:37:58.138Z,97477.72
2022-11-18T06:41:15.555Z,97489.33
2022-11-18T06:44:31.663Z,97493.31
2022-11-18T06:47:48.172Z,97491.28
2022-11-18T06:51:04.282Z,97485.11
2022-11-18T06:54:20.897Z,97480.55
2022-11-18T06:57:37.308Z,97484.65
2022-11-18T07:00:54.069Z,97486.45
2022-11-18T07:04:10.674Z,97496.72
2022-11-18T07:07:26.811Z,97511.68
2022-11-18T07:10:43.097Z,97517.88
2022-11-18T07:13:59.668Z,97511.45
2022-11-18T07:17:16.756Z,97511.98
2022-11-18T07:20:32.940Z,97501.55
2022-11-18T07:23:49.622Z,97505.66
2022-11-18T07:27:06.626Z,97493.58
2022-11-18T07:30:24.513Z,97496.62
2022-11-18T07:33:41.886Z,97501.45
2022-11-18T07:36:58.144Z,97506.13
2022-11-18T07:40:17.278Z,97489.83
2022-11-18T07:43:33.373Z,97488.19
2022-11-18T07:46:49.460Z,97486.55
2022-11-18T07:50:05.571Z,97478.88
2022-11-18T07:53:21.846Z,97467.19
2022-11-18T07:56:40.270Z,97465.84
2022-11-18T07:59:56.603Z,97481.09
2022-11-18T08:03:15.735Z,97485.35
2022-11-18T08:06:31.953Z,97495.63
2022-11-18T08:09:48.395Z,97488.34
2022-11-18T08:13:05.736Z,97479.56
2022-11-18T08:16:26.377Z,97486.11
2022-11-18T08:19:43.830Z,97498.03
2022-11-18T08:23:00.733Z,97488.42
2022-11-18T08:26:19.666Z,97482.82
2022-11-18T08:29:37.527Z,97497.34
2022-11-18T08:32:53.543Z,97506.13
2022-11-18T08:36:16.662Z,97509.95
2022-11-18T08:39:32.895Z,97500.11
2022-11-18T08:42:49.533Z,97495.86
2022-11-18T08:46:05.720Z,97505.02
2022-11-18T08:49:22.261Z,97521.34
2022-11-18T08:52:38.372Z,97515.17
2022-11-18T08:55:57.061Z,97528.58
2022-11-18T08:59:12.812Z,97521.30
2022-11-18T09:02:31.032Z,97524.33
2022-11-18T09:05:47.253Z,97539.59
2022-11-18T09:09:18.741Z,97531.73
2022-11-18T09:12:22.328Z,97523.75
2022-11-18T09:15:38.896Z,97529.92
2022-11-18T09:18:55.039Z,97522.94
2022-11-18T09:22:11.786Z,97528.31
2022-11-18T09:25:27.992Z,97525.25
2022-11-18T09:28:44.851Z,97536.67
2022-11-18T09:32:02.833Z,97526.47
2022-11-18T09:35:19.536Z,97541.04
2022-11-18T09:38:36.638Z,97545.83
2022-11-18T09:42:03.211Z,97531.68
2022-11-18T09:45:29.632Z,97538.44
2022-11-18T09:48:57.178Z,97532.26
2022-11-18T09:52:18.918Z,97530.99
2022-11-18T09:55:37.262Z,97551.70
2022-11-18T09:58:53.687Z,97546.64
2022-11-18T10:02:18.844Z,97537.58
2022-11-18T10:05:42.863Z,97537.00
2022-11-18T10:09:11.893Z,97544.14
2022-11-18T10:12:37.858Z,97537.27
2022-11-18T10:16:06.436Z,97531.33
2022-11-18T10:19:33.178Z,97534.89
2022-11-18T10:22:54.849Z,97535.05
2022-11-18T10:26:10.960Z,97537.13
2022-11-18T10:29:27.097Z,97539.73
2022-11-18T10:32:44.536Z,97540.31
2022-11-18T10:36:21.917Z,97515.88
2022-11-18T10:39:38.419Z,97524.97
2022-11-18T10:42:55.380Z,97527.73
2022-11-18T10:46:29.530Z,97541.47
2022-11-18T10:49:49.879Z,97556.57
2022-11-18T10:53:06.361Z,97546.98
2022-11-18T10:56:23.993Z,97553.55
2022-11-18T10:59:44.699Z,97550.52
2022-11-18T11:03:06.601Z,97549.82
2022-11-18T11:06:44.261Z,97554.46
2022-11-18T11:10:25.004Z,97554.31
2022-11-18T11:13:44.212Z,97553.23
2022-11-18T11:17:13.504Z,97560.36
2022-11-18T11:20:31.934Z,97561.33
2022-11-18T11:23:48.312Z,97561.47
2022-11-18T11:30:33.892Z,97565.77
2022-11-18T11:33:55.028Z,97561.90
2022-11-18T11:37:15.532Z,97557.95
2022-11-18T11:40:38.722Z,97561.66
2022-11-18T11:44:09.940Z,97549.59
2022-11-18T11:47:54.512Z,97542.50
2022-11-18T11:51:16.238Z,97536.75
2022-11-18T11:54:53.186Z,97542.68
2022-11-18T11:58:25.336Z,97541.84
2022-11-18T12:01:48.849Z,97536.39
2022-11-18T12:05:09.340Z,97530.22
2022-11-18T12:08:29.617Z,97542.41
2022-11-18T12:11:51.426Z,97538.04
2022-11-18T12:15:13.261Z,97535.02
2022-11-18T12:18:35.367Z,97551.52
2022-11-18T12:22:09.281Z,97562.23
2022-11-18T12:25:58.090Z,97556.19
2022-11-18T12:29:31.659Z,97550.97
2022-11-18T12:32:49.828Z,97551.27
2022-11-18T12:36:06.093Z,97557.70
2022-11-18T12:40:03.522Z,97560.60
2022-11-18T12:44:10.043Z,97564.58
2022-11-18T12:47:41.820Z,97572.27
2022-11-18T12:51:00.134Z,97569.38
2022-11-18T12:54:39.453Z,97573.34
2022-11-18T12:57:55.756Z,97571.99
2022-11-18T13:01:19.172Z,97576.24
2022-11-18T13:04:37.813Z,97583.77
2022-11-18T13:08:12.508Z,97578.99
2022-11-18T13:11:51.469Z,97583.51
2022-11-18T13:15:29.505Z,97584.88
2022-11-18T13:19:03.926Z,97582.70
2022-11-18T13:22:42.243Z,97588.06
2022-11-18T13:26:00.157Z,97603.69
2022-11-18T13:29:32.909Z,97608.74
2022-11-18T13:32:53.081Z,97611.34
2022-11-18T13:36:17.623Z,97609.14
2022-11-18T13:39:36.684Z,97609.55
2022-11-18T13:42:55.590Z,97614.50
2022-11-18T13:46:16.268Z,97609.55
2022-11-18T13:49:43.987Z,97607.75
2022-11-18T13:53:26.799Z,97610.91
2022-11-18T14:00:01.286Z,97626.97
2022-11-18T14:03:28.619Z,97635.73
2022-11-18T14:06:47.060Z,97638.74
2022-11-18T14:10:07.558Z,97635.33
2022-11-18T14:13:33.548Z,97642.30
2022-11-18T14:16:53.429Z,97644.79
2022-11-18T14:20:16.601Z,97636.53
2022-11-18T14:23:40.148Z,97636.53
2022-11-18T14:26:56.699Z,97645.88
2022-11-18T14:30:39.202Z,97651.90
2022-11-18T14:34:18.014Z,97641.09
2022-11-18T14:37:35.449Z,97656.56
2022-11-18T14:40:51.970Z,97653.67
2022-11-18T14:44:08.910Z,97662.47
2022-11-18T14:47:30.963Z,97667.38
2022-11-18T14:50:48.750Z,97666.98
2022-11-18T14:54:05.219Z,97678.90
2022-11-18T14:57:25.007Z,97669.73
2022-11-18T15:00:42.695Z,97683.56
2022-11-18T15:03:58.899Z,97681.37
2022-11-18T15:07:23.573Z,97678.91
2022-11-18T15:10:36.728Z,97685.21
2022-11-18T15:13:53.484Z,97691.09
2022-11-18T15:17:09.885Z,97691.09
2022-11-18T15:20:29.401Z,97690.13
2022-11-18T15:23:45.673Z,97684.12
2022-11-18T15:27:03.735Z,97687.81
2022-11-18T15:30:22.125Z,97688.63
2022-11-18T15:33:38.231Z,97688.08
2022-11-18T15:36:54.570Z,97693.03
2022-11-18T15:40:22.439Z,97707.27
2022-11-18T15:43:38.629Z,97700.84
2022-11-18T15:46:56.394Z,97710.17
2022-11-18T15:50:13.807Z,97723.88
2022-11-18T15:53:30.225Z,97721.81
2022-11-18T15:56:46.850Z,97716.30
2022-11-18T16:00:03.043Z,97720.28
2022-11-18T16:03:20.947Z,97726.59
2022-11-18T16:06:37.721Z,97720.68
2022-11-18T16:10:04.144Z,97731.80
2022-11-18T16:13:21.752Z,97738.52
2022-11-18T16:16:39.132Z,97742.73
2022-11-18T16:19:56.232Z,97750.55
2022-11-18T16:23:12.477Z,97753.84
2022-11-18T16:26:28.791Z,97749.48
2022-11-18T16:29:44.978Z,97743.44
2022-11-18T16:33:02.985Z,97752.09
2022-11-18T16:36:23.347Z,97759.90
2022-11-18T16:39:40.203Z,97758.11
2022-11-18T16:42:58.646Z,97754.95
2022-11-18T16:46:15.926Z,97754.14
2022-11-18T16:49:34.462Z,97763.45
2022-11-18T16:52:50.561Z,97769.05
2022-11-18T16:56:11.205Z,97766.06
2022-11-18T16:59:30.686Z,97778.23
2022-11-18T17:02:44.818Z,97777.28
2022-11-18T17:06:01.500Z,97768.77
2022-11-18T17:09:22.060Z,97758.92
2022-11-18T17:12:40.366Z,97763.73
2022-11-18T17:19:15.012Z,97774.00
2022-11-18T17:22:31.456Z,97777.98
2022-11-18T17:25:47.589Z,97779.21
2022-11-18T17:29:05.259Z,97780.16
2022-11-18T17:32:21.462Z,97787.16
2022-11-18T17:35:37.662Z,97781.95
2022-11-18T17:38:56.468Z,97784.56
2022-11-18T17:42:20.942Z,97779.35
2022-11-18T17:45:37.430Z,97793.75
2022-11-18T17:48:53.528Z,97783.19
2022-11-18T17:52:09.754Z,97794.14
2022-11-18T17:55:26.643Z,97799.48
2022-11-18T17:58:42.896Z,97800.02
2022-11-18T18:02:00.750Z,97797.55
2022-11-18T18:05:18.300Z,97802.62
2022-11-18T18:08:34.548Z,97803.32
2022-11-18T18:11:50.722Z,97798.95
2022-11-18T18:15:06.916Z,97796.35
2022-11-18T18:18:23.307Z,97789.74
2022-11-18T18:21:39.870Z,97803.46
2022-11-18T18:24:58.639Z,97805.11
2022-11-18T18:28:25.544Z,97801.81
2022-11-18T18:31:47.191Z,97815.53
2022-11-18T18:35:10.605Z,97827.70
2022-11-18T18:38:34.348Z,97835.27
2022-11-18T18:41:50.588Z,97825.95
2022-11-18T18:45:21.957Z,97824.71
2022-11-18T18:48:39.024Z,97833.65
2022-11-18T18:51:57.136Z,97837.77
2022-11-18T18:55:25.161Z,97840.63
2022-11-18T18:58:48.964Z,97843.50
2022-11-18T19:02:05.367Z,97840.05
2022-11-18T19:05:38.842Z,97841.04
2022-11-18T19:08:40.217Z,97848.01
2022-11-18T19:12:10.564Z,97855.43
2022-11-18T19:15:27.843Z,97850.36
2022-11-18T19:18:46.028Z,97851.73
2022-11-18T19:22:02.113Z,97857.93
2022-11-18T19:25:19.221Z,97852.02
2022-11-18T19:28:35.427Z,97855.61
2022-11-18T19:31:51.809Z,97856.17
2022-11-18T19:35:08.285Z,97852.86
2022-11-18T19:38:25.792Z,97863.28
2022-11-18T19:41:42.150Z,97869.19
2022-11-18T19:44:58.418Z,97864.94
2022-11-18T19:48:15.447Z,97862.19
2022-11-18T19:51:32.358Z,97857.23
2022-11-18T19:54:49.651Z,97863.28
2022-11-18T19:58:05.993Z,97856.28
2022-11-18T20:01:27.018Z,97866.70
2022-11-18T20:04:45.270Z,97870.70
2022-11-18T20:08:03.816Z,97870.56
2022-11-18T20:11:24.226Z,97875.77
2022-11-18T20:14:40.673Z,97872.05
2022-11-18T20:17:56.927Z,97866.97
2022-11-18T20:21:20.649Z,97871.76
2022-11-18T20:24:40.966Z,97880.14
2022-11-18T20:27:57.927Z,97862.72
2022-11-18T20:31:16.503Z,97865.70
2022-11-18T20:34:33.173Z,97876.09
2022-11-18T20:37:50.475Z,97889.95
2022-11-18T20:41:12.988Z,97888.16
2022-11-18T20:44:29.429Z,97878.69
2022-11-18T20:47:45.896Z,97873.09
2022-11-18T20:51:02.484Z,97887.63
2022-11-18T20:54:20.961Z,97895.20
2022-11-18T20:57:37.754Z,97899.56
2022-11-18T21:01:00.544Z,97896.81
2022-11-18T21:04:15.936Z,97897.76
2022-11-18T21:07:32.657Z,97910.08
2022-11-18T21:10:49.634Z,97910.34
2022-11-18T21:14:26.593Z,97905.39
2022-11-18T21:17:43.513Z,97921.95
2022-11-18T21:21:17.371Z,97933.21
2022-11-18T21:24:39.369Z,97935.68
2022-11-18T21:27:56.422Z,97933.08
2022-11-18T21:31:17.276Z,97929.77
2022-11-18T21:34:34.421Z,97924.97
2022-11-18T21:37:50.687Z,97926.05
2022-11-18T21:41:12.079Z,97927.25
2022-11-18T21:44:28.826Z,97941.78
2022-11-18T21:47:45.348Z,97951.52
2022-11-18T21:51:03.797Z,97941.10
2022-11-18T21:54:20.482Z,97947.94
2022-11-18T21:57:36.893Z,97943.44
2022-11-18T22:00:53.144Z,97952.46
2022-11-18T22:04:14.541Z,97955.88
2022-11-18T22:07:32.055Z,97959.70
2022-11-18T22:10:52.253Z,97960.27
2022-11-18T22:14:09.148Z,97958.48
2022-11-18T22:17:26.014Z,97967.81
2022-11-18T22:20:43.334Z,97971.94
2022-11-18T22:24:01.554Z,97976.19
2022-11-18T22:27:20.801Z,97979.50
2022-11-18T22:30:37.433Z,97979.50
2022-11-18T22:33:53.866Z,97976.63
2022-11-18T22:37:10.132Z,97976.47
2022-11-18T22:40:26.637Z,97975.38
2022-11-18T22:43:43.716Z,97996.65
2022-11-18T22:47:01.690Z,97992.25
2022-11-18T22:50:19.154Z,97995.70
2022-11-18T22:53:35.968Z,97994.28
2022-11-18T22:56:52.406Z,98005.41
2022-11-18T23:00:09.604Z,97991.30
2022-11-18T23:03:26.396Z,97994.05
2022-11-18T23:06:42.888Z,97991.67
2022-11-18T23:09:59.118Z,97997.39
2022-11-18T23:13:31.076Z,97997.66
2022-11-18T23:16:49.826Z,97985.73
2022-11-18T23:20:08.487Z,97995.30
2022-11-18T23:23:25.346Z,98010.47
2022-11-18T23:26:41.791Z,98018.78
2022-11-18T23:29:58.134Z,98008.71
2022-11-18T23:33:14.619Z,98027.88
2022-11-18T23:36:32.227Z,98014.86
2022-11-18T23:39:48.301Z,98028.01
2022-11-18T23:43:04.487Z,98016.76
2022-11-18T23:46:21.438Z,98029.40
2022-11-18T23:49:37.517Z,98029.19
2022-11-18T23:52:53.886Z,98026.59
2022-11-18T23:56:13.561Z,98027.56
2022-11-18T23:59:29.917Z,98025.46
